createdAt,value
2019-04-16T00:02:04.092Z,56.07
2019-04-16T00:04:56.589Z,56.33
2019-04-16T00:07:47.108Z,56.76
2019-04-16T00:10:26.413Z,57.26
2019-04-16T00:13:07.989Z,56.87
2019-04-16T00:15:41.024Z,57.03
2019-04-16T00:18:10.555Z,57.13
2019-04-16T00:20:58.492Z,56.91
2019-04-16T00:23:46.595Z,57.31
2019-04-16T00:26:15.536Z,57.47
2019-04-16T00:28:46.205Z,57.15
2019-04-16T00:31:16.581Z,56.64
2019-04-16T00:33:46.990Z,56.64
2019-04-16T00:36:18.747Z,56.68
2019-04-16T00:38:53.861Z,56.82
2019-04-16T00:41:21.179Z,57.38
2019-04-16T00:43:51.698Z,57.21
2019-04-16T00:46:22.513Z,57.63
2019-04-16T00:48:52.962Z,57.49
2019-04-16T00:51:23.443Z,57.81
2019-04-16T00:53:53.885Z,57.58
2019-04-16T00:56:24.673Z,57.27
2019-04-16T00:58:55.107Z,57.00
2019-04-16T01:01:25.487Z,57.44
2019-04-16T01:03:55.858Z,57.00
2019-04-16T01:06:26.811Z,56.47
2019-04-16T01:08:57.154Z,56.80
2019-04-16T01:11:27.869Z,57.42
2019-04-16T01:13:58.318Z,56.81
2019-04-16T01:16:30.274Z,57.46
2019-04-16T01:19:01.193Z,57.08
2019-04-16T01:21:31.626Z,56.64
2019-04-16T01:24:02.058Z,56.82
2019-04-16T01:26:32.618Z,57.09
2019-04-16T01:29:21.584Z,56.84
2019-04-16T01:32:11.909Z,57.29
2019-04-16T01:35:07.052Z,57.25
2019-04-16T01:37:56.846Z,57.98
2019-04-16T01:40:34.072Z,58.16
2019-04-16T01:43:04.498Z,58.79
2019-04-16T01:45:35.148Z,59.05
2019-04-16T01:48:07.829Z,59.34
2019-04-16T01:50:38.335Z,59.65
2019-04-16T01:53:09.460Z,60.54
2019-04-16T01:55:42.324Z,60.46
2019-04-16T01:58:12.376Z,60.62
2019-04-16T02:00:43.047Z,60.23
2019-04-16T02:03:17.571Z,60.57
2019-04-16T02:05:45.632Z,60.79
2019-04-16T02:08:16.094Z,61.52
2019-04-16T02:10:46.392Z,61.98
2019-04-16T02:13:17.499Z,61.71
2019-04-16T02:15:50.636Z,61.15
2019-04-16T02:18:20.671Z,61.07
2019-04-16T02:20:51.102Z,60.62
2019-04-16T02:23:21.871Z,60.64
2019-04-16T02:25:52.279Z,60.99
2019-04-16T02:28:27.891Z,61.46
2019-04-16T02:30:55.072Z,61.56
2019-04-16T02:33:25.844Z,61.14
2019-04-16T02:35:56.801Z,61.95
2019-04-16T02:38:27.624Z,62.18
2019-04-16T02:40:58.032Z,62.64
2019-04-16T02:43:28.880Z,62.70
2019-04-16T02:45:59.575Z,62.87
2019-04-16T02:48:30.295Z,62.94
2019-04-16T02:51:08.621Z,62.44
2019-04-16T02:53:47.452Z,62.37
2019-04-16T02:56:39.933Z,62.24
2019-04-16T02:59:16.471Z,61.90
2019-04-16T03:02:14.660Z,62.33
2019-04-16T03:04:49.153Z,62.62
2019-04-16T03:07:19.794Z,63.10
2019-04-16T03:10:00.715Z,62.73
2019-04-16T03:12:22.822Z,62.52
2019-04-16T03:14:53.091Z,63.16
2019-04-16T03:17:42.838Z,63.21
2019-04-16T03:20:12.992Z,63.56
2019-04-16T03:22:43.556Z,64.15
2019-04-16T03:25:14.864Z,64.55
2019-04-16T03:27:45.435Z,64.86
2019-04-16T03:30:16.195Z,65.32
2019-04-16T03:32:52.585Z,65.08
2019-04-16T03:35:26.603Z,64.90
2019-04-16T03:37:55.706Z,65.35
2019-04-16T03:40:26.731Z,64.99
2019-04-16T03:42:59.290Z,65.30
2019-04-16T03:45:30.114Z,65.22
2019-04-16T03:48:00.463Z,64.87
2019-04-16T03:50:32.075Z,65.13
2019-04-16T03:53:02.580Z,65.73
2019-04-16T03:55:33.008Z,66.13
2019-04-16T03:58:06.106Z,65.75
2019-04-16T04:00:36.207Z,65.61
2019-04-16T04:03:06.559Z,65.48
2019-04-16T04:05:36.857Z,65.32
2019-04-16T04:08:07.402Z,65.44
2019-04-16T04:10:37.981Z,65.81
2019-04-16T04:13:08.573Z,66.09
2019-04-16T04:15:39.380Z,66.25
2019-04-16T04:18:11.797Z,66.84
2019-04-16T04:20:41.859Z,67.17
2019-04-16T04:23:12.676Z,67.39
2019-04-16T04:25:43.196Z,67.36
2019-04-16T04:28:18.472Z,67.59
2019-04-16T04:30:48.812Z,67.39
2019-04-16T04:33:40.375Z,67.33
2019-04-16T04:36:10.369Z,67.59
2019-04-16T04:38:41.246Z,67.51
2019-04-16T04:41:11.993Z,67.02
2019-04-16T04:43:43.090Z,67.30
2019-04-16T04:46:15.329Z,67.07
2019-04-16T04:48:46.564Z,66.96
2019-04-16T04:51:17.064Z,66.05
2019-04-16T04:53:50.242Z,65.64
2019-04-16T04:56:20.507Z,65.36
2019-04-16T04:58:51.288Z,65.34
2019-04-16T05:01:21.676Z,65.74
2019-04-16T05:04:26.332Z,65.47
2019-04-16T05:06:58.912Z,65.12
2019-04-16T05:09:32.671Z,65.36
2019-04-16T05:12:02.404Z,64.70
2019-04-16T05:14:32.797Z,64.10
2019-04-16T05:17:06.503Z,64.12
2019-04-16T05:19:58.007Z,63.57
2019-04-16T05:22:28.746Z,62.62
2019-04-16T05:25:01.421Z,61.73
2019-04-16T05:27:34.246Z,61.07
2019-04-16T05:30:05.387Z,60.49
2019-04-16T05:32:35.818Z,60.26
2019-04-16T05:35:10.317Z,60.05
2019-04-16T05:37:38.698Z,59.18
2019-04-16T05:40:10.778Z,58.52
2019-04-16T05:42:41.044Z,57.72
2019-04-16T05:45:12.336Z,56.44
2019-04-16T05:47:42.761Z,55.74
2019-04-16T05:50:13.189Z,54.51
2019-04-16T05:52:43.547Z,53.58
2019-04-16T05:55:32.850Z,52.70
2019-04-16T05:58:03.253Z,52.51
2019-04-16T06:00:52.714Z,51.21
2019-04-16T06:03:23.138Z,50.64
2019-04-16T06:05:53.447Z,50.30
2019-04-16T06:08:24.002Z,49.85
2019-04-16T06:10:57.499Z,48.95
2019-04-16T06:13:45.232Z,48.83
2019-04-16T06:16:47.121Z,49.51
2019-04-16T06:19:45.941Z,49.67
2019-04-16T06:22:31.298Z,49.36
2019-04-16T06:25:20.603Z,48.23
2019-04-16T06:28:08.491Z,47.20
2019-04-16T06:30:49.315Z,48.05
2019-04-16T06:33:44.856Z,46.78
2019-04-16T06:36:49.739Z,46.00
2019-04-16T06:39:33.486Z,45.47
2019-04-16T06:42:23.259Z,46.00
2019-04-16T06:44:56.061Z,45.04
2019-04-16T06:47:54.455Z,45.01
2019-04-16T06:50:44.056Z,44.52
2019-04-16T06:53:33.831Z,43.56
2019-04-16T06:56:13.375Z,41.90
2019-04-16T06:59:05.674Z,40.38
2019-04-16T07:01:53.402Z,38.11
2019-04-16T07:04:41.205Z,38.05
2019-04-16T07:07:40.292Z,38.72
2019-04-16T07:10:14.846Z,37.89
2019-04-16T07:12:45.751Z,38.57
2019-04-16T07:15:16.434Z,38.90
2019-04-16T07:17:46.754Z,38.94
2019-04-16T07:20:17.161Z,39.24
2019-04-16T07:22:52.747Z,39.00
2019-04-16T07:25:21.167Z,38.18
2019-04-16T07:28:00.034Z,37.68
2019-04-16T07:30:38.691Z,37.88
2019-04-16T07:33:14.773Z,37.97
2019-04-16T07:36:04.463Z,38.07
2019-04-16T07:38:43.274Z,37.75
2019-04-16T07:41:26.677Z,37.58
2019-04-16T07:44:15.593Z,37.21
2019-04-16T07:46:59.086Z,36.18
2019-04-16T07:49:47.379Z,36.62
2019-04-16T07:52:38.923Z,36.14
2019-04-16T07:55:31.055Z,35.65
2019-04-16T07:58:01.896Z,36.87
2019-04-16T08:00:33.625Z,37.65
2019-04-16T08:03:04.130Z,37.26
2019-04-16T08:05:37.844Z,36.73
2019-04-16T08:08:07.366Z,36.51
2019-04-16T08:10:38.067Z,36.93
2019-04-16T08:13:34.329Z,37.04
2019-04-16T08:16:05.125Z,37.33
2019-04-16T08:18:37.675Z,37.21
2019-04-16T08:21:12.079Z,36.51
2019-04-16T08:23:43.625Z,36.14
2019-04-16T08:26:14.112Z,36.91
2019-04-16T08:28:44.956Z,37.86
2019-04-16T08:31:18.531Z,37.44
2019-04-16T08:33:49.435Z,38.18
2019-04-16T08:36:19.798Z,37.01
2019-04-16T08:38:50.290Z,37.98
2019-04-16T08:41:21.668Z,38.24
2019-04-16T08:43:52.492Z,38.12
2019-04-16T08:46:23.303Z,36.35
2019-04-16T08:48:54.363Z,36.58
2019-04-16T08:51:30.663Z,37.14
2019-04-16T08:53:57.666Z,37.11
2019-04-16T08:56:28.077Z,35.68
2019-04-16T08:59:01.224Z,35.22
2019-04-16T09:01:33.866Z,36.67
2019-04-16T09:04:04.347Z,36.40
2019-04-16T09:06:34.825Z,34.61
2019-04-16T09:09:18.279Z,34.22
2019-04-16T09:11:50.741Z,34.91
2019-04-16T09:14:25.363Z,35.04
2019-04-16T09:17:15.833Z,32.91
2019-04-16T09:20:06.463Z,32.40
2019-04-16T09:22:48.222Z,33.43
2019-04-16T09:25:28.214Z,36.12
2019-04-16T09:28:25.615Z,34.55
2019-04-16T09:31:26.187Z,33.39
2019-04-16T09:34:06.785Z,32.83
2019-04-16T09:36:56.503Z,33.39
2019-04-16T09:39:39.136Z,31.38
2019-04-16T09:42:09.535Z,30.75
2019-04-16T09:44:39.920Z,32.47
2019-04-16T09:47:10.413Z,32.29
2019-04-16T09:49:41.364Z,31.21
2019-04-16T09:52:11.827Z,32.36
2019-04-16T09:54:44.463Z,32.19
2019-04-16T09:57:14.673Z,31.37
2019-04-16T09:59:49.637Z,31.48
2019-04-16T10:02:26.045Z,30.49
2019-04-16T10:04:56.481Z,28.68
2019-04-16T10:07:26.802Z,29.01
2019-04-16T10:09:57.533Z,28.12
2019-04-16T10:12:28.022Z,27.74
2019-04-16T10:14:58.635Z,25.81
2019-04-16T10:17:30.170Z,25.89
2019-04-16T10:20:02.333Z,25.55
2019-04-16T10:22:32.711Z,24.57
2019-04-16T10:25:11.626Z,23.53
2019-04-16T10:28:05.104Z,25.18
2019-04-16T10:30:39.070Z,25.38
2019-04-16T10:33:09.688Z,27.12
2019-04-16T10:35:40.072Z,24.88
2019-04-16T10:38:28.409Z,24.53
2019-04-16T10:41:04.530Z,23.93
2019-04-16T10:43:46.803Z,25.04
2019-04-16T10:46:28.762Z,25.63
2019-04-16T10:49:18.402Z,23.72
2019-04-16T10:52:03.571Z,23.58
2019-04-16T10:54:44.439Z,21.63
2019-04-16T10:57:32.402Z,22.03
2019-04-16T11:00:11.623Z,23.74
2019-04-16T11:02:48.201Z,24.01
2019-04-16T11:05:32.918Z,24.58
2019-04-16T11:08:04.272Z,26.71
2019-04-16T11:10:36.280Z,27.00
2019-04-16T11:13:08.699Z,27.91
2019-04-16T11:15:39.181Z,27.78
2019-04-16T11:18:09.660Z,27.08
2019-04-16T11:20:40.632Z,27.16
2019-04-16T11:23:11.024Z,27.00
2019-04-16T11:25:42.099Z,27.07
2019-04-16T11:28:14.330Z,26.59
2019-04-16T11:30:49.162Z,26.82
2019-04-16T11:33:19.739Z,24.73
2019-04-16T11:35:53.172Z,24.43
2019-04-16T11:38:23.060Z,23.38
2019-04-16T11:40:54.434Z,22.69
2019-04-16T11:43:27.242Z,22.48
2019-04-16T11:45:57.611Z,22.60
2019-04-16T11:48:28.319Z,23.22
2019-04-16T11:50:59.053Z,23.40
2019-04-16T11:53:29.964Z,24.00
2019-04-16T11:56:00.777Z,23.47
2019-04-16T11:58:43.491Z,24.43
2019-04-16T12:01:32.279Z,25.02
2019-04-16T12:04:10.967Z,25.10
2019-04-16T12:06:57.460Z,25.24
2019-04-16T12:09:52.657Z,25.12
2019-04-16T12:12:27.804Z,25.38
2019-04-16T12:15:29.635Z,25.47
2019-04-16T12:18:07.039Z,26.35
2019-04-16T12:20:50.134Z,26.28
2019-04-16T12:23:43.077Z,25.89
2019-04-16T12:26:31.281Z,26.12
2019-04-16T12:29:32.832Z,26.94
2019-04-16T12:32:40.620Z,27.14
2019-04-16T12:35:22.670Z,28.08
2019-04-16T12:38:13.092Z,28.69
2019-04-16T12:40:57.292Z,28.66
2019-04-16T12:43:35.996Z,28.43
2019-04-16T12:46:30.322Z,29.31
2019-04-16T12:49:17.218Z,28.68
2019-04-16T12:51:57.899Z,30.06
2019-04-16T12:54:42.460Z,28.24
2019-04-16T12:57:46.838Z,29.17
2019-04-16T13:00:39.296Z,28.79
2019-04-16T13:03:28.559Z,29.39
2019-04-16T13:06:26.155Z,28.97
2019-04-16T13:09:30.485Z,29.32
2019-04-16T13:12:18.198Z,29.72
2019-04-16T13:15:09.777Z,30.01
2019-04-16T13:18:01.895Z,29.03
2019-04-16T13:20:49.803Z,29.10
2019-04-16T13:23:34.140Z,29.33
2019-04-16T13:26:15.803Z,29.35
2019-04-16T13:28:46.107Z,29.37
2019-04-16T13:31:17.015Z,29.12
2019-04-16T13:33:50.746Z,29.28
2019-04-16T13:36:19.568Z,29.35
2019-04-16T13:38:55.436Z,29.58
2019-04-16T13:41:27.081Z,29.72
2019-04-16T13:44:02.240Z,30.33
2019-04-16T13:46:34.709Z,30.58
2019-04-16T13:49:19.409Z,30.92
2019-04-16T13:51:49.829Z,30.07
2019-04-16T13:54:44.669Z,30.85
2019-04-16T13:57:17.296Z,29.75
2019-04-16T14:00:05.714Z,30.19
2019-04-16T14:02:56.666Z,30.16
2019-04-16T14:05:28.418Z,29.62
2019-04-16T14:07:59.337Z,30.30
2019-04-16T14:10:29.972Z,29.41
2019-04-16T14:13:02.058Z,29.31
2019-04-16T14:15:38.983Z,29.71
2019-04-16T14:18:07.265Z,30.06
2019-04-16T14:20:37.634Z,29.95
2019-04-16T14:23:08.270Z,29.74
2019-04-16T14:25:39.275Z,30.20
2019-04-16T14:28:09.751Z,31.21
2019-04-16T14:30:44.631Z,31.19
2019-04-16T14:33:20.439Z,31.23
2019-04-16T14:35:50.878Z,31.53
2019-04-16T14:38:28.953Z,32.24
2019-04-16T14:40:59.419Z,33.06
2019-04-16T14:43:34.977Z,33.99
2019-04-16T14:46:08.469Z,33.81
2019-04-16T14:48:42.460Z,34.04
2019-04-16T14:51:10.231Z,34.60
2019-04-16T14:53:46.580Z,35.04
2019-04-16T14:56:21.277Z,34.83
2019-04-16T14:59:29.901Z,35.36
2019-04-16T15:02:07.898Z,35.20
2019-04-16T15:04:57.694Z,34.15
2019-04-16T15:07:34.766Z,34.22
2019-04-16T15:10:25.253Z,34.05
2019-04-16T15:13:21.028Z,33.92
2019-04-16T15:16:21.289Z,34.06
2019-04-16T15:19:08.278Z,33.86
2019-04-16T15:21:57.660Z,33.50
2019-04-16T15:24:43.222Z,32.69
2019-04-16T15:27:40.385Z,33.04
2019-04-16T15:30:29.379Z,32.65
2019-04-16T15:33:18.896Z,33.20
2019-04-16T15:36:02.026Z,32.37
2019-04-16T15:38:36.971Z,32.26
2019-04-16T15:41:29.243Z,32.49
2019-04-16T15:44:31.578Z,33.19
2019-04-16T15:47:04.516Z,33.67
2019-04-16T15:49:40.260Z,33.60
2019-04-16T15:52:47.742Z,33.53
2019-04-16T15:55:36.839Z,33.19
2019-04-16T15:58:25.101Z,33.80
2019-04-16T16:01:49.824Z,33.54
2019-04-16T16:04:32.809Z,33.99
2019-04-16T16:07:12.217Z,34.72
2019-04-16T16:10:22.991Z,34.93
2019-04-16T16:12:53.967Z,35.02
2019-04-16T16:15:24.737Z,34.54
2019-04-16T16:17:55.757Z,35.20
2019-04-16T16:20:26.028Z,36.13
2019-04-16T16:22:58.403Z,36.32
2019-04-16T16:25:28.607Z,35.85
2019-04-16T16:27:59.011Z,36.32
2019-04-16T16:30:29.423Z,36.54
2019-04-16T16:32:59.746Z,36.95
2019-04-16T16:35:30.339Z,37.13
2019-04-16T16:38:01.300Z,37.67
2019-04-16T16:40:35.877Z,37.16
2019-04-16T16:43:08.627Z,37.46
2019-04-16T16:45:48.632Z,37.64
2019-04-16T16:48:21.909Z,38.02
2019-04-16T16:50:51.996Z,37.92
2019-04-16T16:53:28.763Z,38.18
2019-04-16T16:56:06.080Z,38.34
2019-04-16T16:58:54.505Z,38.41
2019-04-16T17:01:39.629Z,38.58
2019-04-16T17:04:13.676Z,39.04
2019-04-16T17:06:44.529Z,39.25
2019-04-16T17:09:31.225Z,39.96
2019-04-16T17:12:02.691Z,40.22
2019-04-16T17:14:36.464Z,40.71
2019-04-16T17:17:13.900Z,41.66
2019-04-16T17:19:38.446Z,40.97
2019-04-16T17:22:08.915Z,41.28
2019-04-16T17:24:39.728Z,41.25
2019-04-16T17:27:10.183Z,41.20
2019-04-16T17:29:40.931Z,41.09
2019-04-16T17:32:11.413Z,41.39
2019-04-16T17:34:42.257Z,41.21
2019-04-16T17:37:12.609Z,41.03
2019-04-16T17:39:57.172Z,41.15
2019-04-16T17:42:45.781Z,41.35
2019-04-16T17:45:53.696Z,41.36
2019-04-16T17:48:49.174Z,41.56
2019-04-16T17:51:25.322Z,41.67
2019-04-16T17:54:12.353Z,41.85
2019-04-16T17:57:10.419Z,41.83
2019-04-16T18:00:00.481Z,42.23
2019-04-16T18:02:43.931Z,42.90
2019-04-16T18:05:31.589Z,43.18
2019-04-16T18:08:39.420Z,43.61
2019-04-16T18:11:16.392Z,44.04
2019-04-16T18:14:10.794Z,43.89
2019-04-16T18:16:46.720Z,44.30
2019-04-16T18:19:38.656Z,44.54
2019-04-16T18:22:27.966Z,44.50
2019-04-16T18:25:22.138Z,44.35
2019-04-16T18:28:05.356Z,44.50
2019-04-16T18:30:44.532Z,44.77
2019-04-16T18:33:39.654Z,44.76
2019-04-16T18:36:37.881Z,44.76
2019-04-16T18:39:26.300Z,44.67
2019-04-16T18:42:00.914Z,44.99
2019-04-16T18:44:51.309Z,45.01
2019-04-16T18:47:34.141Z,47.34
2019-04-16T18:50:07.343Z,48.72
2019-04-16T18:52:38.050Z,50.05
2019-04-16T18:55:08.664Z,50.47
2019-04-16T18:57:39.259Z,50.49
2019-04-16T19:00:28.767Z,50.26
2019-04-16T19:02:59.613Z,50.07
2019-04-16T19:05:30.059Z,50.12
2019-04-16T19:08:01.297Z,50.07
2019-04-16T19:10:31.917Z,50.24
2019-04-16T19:13:02.339Z,50.26
2019-04-16T19:15:32.885Z,50.00
2019-04-16T19:18:18.601Z,50.13
2019-04-16T19:20:35.923Z,50.77
2019-04-16T19:23:06.996Z,50.31
2019-04-16T19:25:37.477Z,50.62
2019-04-16T19:28:07.886Z,51.05
2019-04-16T19:30:38.432Z,51.04
2019-04-16T19:33:08.897Z,50.86
2019-04-16T19:35:39.600Z,51.38
2019-04-16T19:38:10.064Z,51.83
2019-04-16T19:40:40.458Z,51.38
2019-04-16T19:43:11.272Z,51.39
2019-04-16T19:45:43.745Z,51.58
2019-04-16T19:48:17.594Z,51.40
2019-04-16T19:50:45.826Z,51.31
2019-04-16T19:53:16.250Z,51.33
2019-04-16T19:55:46.687Z,51.77
2019-04-16T19:58:17.109Z,51.45
2019-04-16T20:00:47.824Z,51.52
2019-04-16T20:03:21.054Z,51.77
2019-04-16T20:05:51.324Z,52.36
2019-04-16T20:08:22.385Z,52.39
2019-04-16T20:10:53.641Z,52.60
2019-04-16T20:13:24.015Z,52.61
2019-04-16T20:15:55.127Z,52.39
2019-04-16T20:18:31.564Z,52.44
2019-04-16T20:21:02.335Z,52.44
2019-04-16T20:23:33.073Z,52.51
2019-04-16T20:26:05.587Z,52.69
2019-04-16T20:28:36.844Z,52.57
2019-04-16T20:31:07.303Z,52.64
2019-04-16T20:33:37.688Z,52.70
2019-04-16T20:36:08.128Z,52.89
2019-04-16T20:38:38.549Z,52.66
2019-04-16T20:41:09.002Z,52.73
2019-04-16T20:43:39.405Z,52.86
2019-04-16T20:46:09.732Z,53.20
2019-04-16T20:48:41.911Z,53.54
2019-04-16T20:51:13.064Z,54.21
2019-04-16T20:53:46.272Z,54.74
2019-04-16T20:56:20.022Z,55.14
2019-04-16T20:58:49.006Z,55.34
2019-04-16T21:01:32.810Z,55.51
2019-04-16T21:04:05.074Z,55.46
2019-04-16T21:06:31.078Z,55.42
2019-04-16T21:09:02.531Z,55.53
2019-04-16T21:11:33.495Z,55.87
2019-04-16T21:14:04.810Z,56.57
2019-04-16T21:16:35.231Z,56.51
2019-04-16T21:19:21.627Z,56.97
2019-04-16T21:21:38.392Z,57.84
2019-04-16T21:24:09.238Z,58.19
2019-04-16T21:26:40.773Z,58.74
2019-04-16T21:29:21.360Z,59.01
2019-04-16T21:31:54.811Z,58.97
2019-04-16T21:34:34.725Z,59.27
2019-04-16T21:37:22.612Z,59.78
2019-04-16T21:39:58.076Z,59.59
2019-04-16T21:42:28.512Z,59.60
2019-04-16T21:44:59.172Z,59.74
2019-04-16T21:47:29.520Z,59.83
2019-04-16T21:50:00.073Z,59.83
2019-04-16T21:52:32.795Z,59.97
2019-04-16T21:55:05.056Z,60.24
2019-04-16T21:57:35.533Z,60.40
2019-04-16T22:00:08.858Z,60.55
2019-04-16T22:02:39.938Z,60.83
2019-04-16T22:05:11.270Z,60.89
2019-04-16T22:07:42.051Z,60.96
2019-04-16T22:10:12.512Z,61.11
2019-04-16T22:12:44.724Z,60.87
2019-04-16T22:15:14.992Z,61.15
2019-04-16T22:17:45.323Z,60.97
2019-04-16T22:20:15.670Z,60.81
2019-04-16T22:22:47.368Z,60.99
2019-04-16T22:25:17.856Z,60.96
2019-04-16T22:27:48.216Z,61.06
2019-04-16T22:30:20.095Z,60.99
2019-04-16T22:32:51.280Z,60.91
2019-04-16T22:35:22.327Z,60.64
2019-04-16T22:37:53.159Z,60.69
2019-04-16T22:40:46.422Z,60.91
2019-04-16T22:43:39.592Z,60.78
2019-04-16T22:46:28.730Z,61.02
2019-04-16T22:49:00.366Z,61.17
2019-04-16T22:51:31.004Z,61.85
2019-04-16T22:54:01.871Z,61.94
2019-04-16T22:56:54.354Z,62.50
2019-04-16T22:59:24.985Z,62.59
2019-04-16T23:01:55.296Z,63.14
2019-04-16T23:04:27.005Z,62.59
2019-04-16T23:06:58.068Z,63.27
2019-04-16T23:09:30.438Z,63.09
2019-04-16T23:12:01.214Z,63.19
2019-04-16T23:14:34.442Z,63.32
2019-04-16T23:17:03.979Z,63.55
2019-04-16T23:19:34.386Z,63.74
2019-04-16T23:22:04.933Z,63.82
2019-04-16T23:24:35.771Z,63.60
2019-04-16T23:27:06.717Z,63.83
2019-04-16T23:29:37.788Z,63.23
2019-04-16T23:32:08.596Z,63.54
2019-04-16T23:34:39.148Z,63.56
2019-04-16T23:37:09.677Z,63.78
2019-04-16T23:39:40.281Z,64.03
2019-04-16T23:42:11.290Z,64.19
2019-04-16T23:45:00.516Z,64.15
2019-04-16T23:47:57.387Z,65.08
2019-04-16T23:50:45.234Z,64.22
2019-04-16T23:53:15.270Z,64.58
2019-04-16T23:56:04.477Z,64.91
2019-04-16T23:59:01.461Z,64.49
